createdAt,value
2023-02-12T00:01:16.016Z,89.44
2023-02-12T00:03:42.582Z,89.16
2023-02-12T00:06:10.302Z,88.98
2023-02-12T00:08:37.719Z,88.97
2023-02-12T00:11:19.751Z,89.23
2023-02-12T00:13:46.577Z,88.72
2023-02-12T00:16:15.532Z,90.05
2023-02-12T00:18:42.352Z,91.25
2023-02-12T00:21:08.920Z,90.82
2023-02-12T00:23:36.273Z,90.02
2023-02-12T00:26:14.066Z,91.66
2023-02-12T00:28:40.867Z,93.09
2023-02-12T00:31:10.003Z,93.92
2023-02-12T00:33:36.514Z,95.21
2023-02-12T00:36:04.081Z,93.12
2023-02-12T00:38:30.965Z,91.49
2023-02-12T00:40:57.501Z,91.18
2023-02-12T00:43:24.164Z,91.18
2023-02-12T00:45:50.785Z,90.63
2023-02-12T00:48:17.552Z,90.77
2023-02-12T00:50:45.739Z,89.56
2023-02-12T00:53:12.534Z,89.60
2023-02-12T00:55:39.205Z,89.82
2023-02-12T00:58:05.879Z,90.06
2023-02-12T01:00:32.294Z,90.89
2023-02-12T01:02:58.722Z,90.52
2023-02-12T01:05:25.231Z,89.98
2023-02-12T01:07:53.517Z,88.65
2023-02-12T01:10:23.525Z,89.26
2023-02-12T01:12:50.469Z,89.37
2023-02-12T01:15:17.738Z,89.53
2023-02-12T01:17:44.569Z,89.50
2023-02-12T01:20:14.807Z,88.61
2023-02-12T01:22:41.438Z,87.99
2023-02-12T01:25:08.348Z,87.98
2023-02-12T01:27:34.839Z,88.04
2023-02-12T01:30:01.609Z,89.49
2023-02-12T01:32:28.248Z,90.76
2023-02-12T01:34:54.691Z,91.20
2023-02-12T01:37:21.259Z,90.78
2023-02-12T01:39:47.656Z,91.22
2023-02-12T01:42:15.530Z,91.83
2023-02-12T01:45:06.425Z,91.34
2023-02-12T01:47:32.890Z,91.12
2023-02-12T01:49:59.527Z,90.99
2023-02-12T01:52:32.185Z,91.22
2023-02-12T01:55:02.334Z,91.13
2023-02-12T01:57:32.709Z,90.37
2023-02-12T02:00:01.662Z,89.54
2023-02-12T02:02:28.706Z,88.72
2023-02-12T02:05:00.197Z,89.76
2023-02-12T02:07:26.674Z,89.00
2023-02-12T02:09:53.600Z,88.70
2023-02-12T02:12:38.813Z,89.46
2023-02-12T02:15:05.942Z,88.93
2023-02-12T02:17:54.106Z,89.32
2023-02-12T02:20:38.706Z,88.87
2023-02-12T02:23:42.426Z,88.65
2023-02-12T02:26:28.959Z,88.65
2023-02-12T02:29:33.112Z,87.56
2023-02-12T02:32:25.260Z,87.06
2023-02-12T02:35:09.796Z,88.67
2023-02-12T02:37:40.802Z,89.11
2023-02-12T02:40:17.451Z,89.44
2023-02-12T02:42:48.893Z,89.63
2023-02-12T02:45:28.468Z,88.94
2023-02-12T02:48:08.234Z,88.16
2023-02-12T02:50:39.427Z,89.51
2023-02-12T02:53:11.972Z,89.82
2023-02-12T02:55:46.140Z,89.86
2023-02-12T02:58:18.669Z,90.12
2023-02-12T03:01:09.511Z,90.83
2023-02-12T03:04:01.305Z,90.69
2023-02-12T03:06:34.489Z,89.74
2023-02-12T03:09:09.535Z,89.81
2023-02-12T03:11:36.096Z,89.95
2023-02-12T03:14:14.613Z,90.29
2023-02-12T03:16:54.635Z,90.97
2023-02-12T03:19:25.304Z,93.30
2023-02-12T03:22:32.143Z,92.79
2023-02-12T03:25:09.662Z,92.71
2023-02-12T03:27:43.692Z,91.98
2023-02-12T03:30:11.012Z,91.16
2023-02-12T03:32:54.138Z,89.66
2023-02-12T03:35:22.860Z,88.34
2023-02-12T03:38:05.700Z,88.17
2023-02-12T03:40:41.467Z,88.11
2023-02-12T03:43:25.222Z,89.25
2023-02-12T03:46:10.300Z,89.47
2023-02-12T03:48:45.141Z,89.32
2023-02-12T03:51:32.753Z,88.83
2023-02-12T03:54:01.177Z,90.07
2023-02-12T03:56:34.737Z,90.01
2023-02-12T03:59:01.566Z,90.44
2023-02-12T04:01:28.671Z,90.18
2023-02-12T04:03:55.914Z,89.20
2023-02-12T04:06:25.808Z,89.00
2023-02-12T04:08:53.747Z,89.30
2023-02-12T04:11:53.851Z,88.72
2023-02-12T04:14:31.028Z,88.53
2023-02-12T04:17:23.435Z,88.60
2023-02-12T04:20:05.429Z,89.30
2023-02-12T04:22:37.493Z,88.47
2023-02-12T04:25:32.795Z,87.98
2023-02-12T04:28:10.479Z,88.04
2023-02-12T04:31:11.292Z,88.64
2023-02-12T04:33:47.362Z,88.83
2023-02-12T04:36:21.206Z,89.28
2023-02-12T04:38:53.712Z,88.36
2023-02-12T04:41:20.389Z,89.04
2023-02-12T04:43:46.990Z,89.30
2023-02-12T04:46:13.432Z,89.01
2023-02-12T04:48:54.374Z,89.40
2023-02-12T04:51:20.939Z,89.11
2023-02-12T04:53:47.739Z,89.27
2023-02-12T04:56:14.631Z,90.08
2023-02-12T04:58:42.022Z,89.86
2023-02-12T05:01:10.181Z,89.45
2023-02-12T05:03:37.488Z,88.58
2023-02-12T05:06:05.722Z,88.93
2023-02-12T05:08:32.400Z,88.08
2023-02-12T05:11:04.448Z,88.07
2023-02-12T05:13:31.160Z,88.67
2023-02-12T05:15:57.871Z,88.62
2023-02-12T05:18:24.598Z,88.75
2023-02-12T05:21:02.948Z,89.65
2023-02-12T05:23:31.513Z,89.43
2023-02-12T05:25:59.759Z,89.07
2023-02-12T05:28:26.830Z,89.36
2023-02-12T05:30:53.539Z,90.10
2023-02-12T05:33:19.992Z,89.84
2023-02-12T05:35:46.419Z,89.27
2023-02-12T05:38:12.877Z,88.98
2023-02-12T05:40:40.414Z,88.23
2023-02-12T05:43:06.882Z,88.91
2023-02-12T05:45:33.423Z,88.96
2023-02-12T05:48:00.116Z,89.66
2023-02-12T05:50:26.608Z,89.45
2023-02-12T05:52:53.060Z,90.45
2023-02-12T05:55:19.613Z,90.58
2023-02-12T05:57:46.261Z,90.42
2023-02-12T06:00:13.473Z,91.40
2023-02-12T06:02:40.058Z,91.70
2023-02-12T06:05:06.837Z,92.08
2023-02-12T06:07:33.283Z,92.06
2023-02-12T06:09:59.931Z,92.50
2023-02-12T06:12:26.401Z,92.05
2023-02-12T06:14:52.758Z,92.75
2023-02-12T06:17:19.400Z,92.52
2023-02-12T06:19:45.843Z,92.54
2023-02-12T06:22:12.299Z,91.89
2023-02-12T06:24:38.753Z,92.23
2023-02-12T06:27:05.161Z,91.96
2023-02-12T06:29:31.941Z,92.34
2023-02-12T06:31:58.463Z,92.22
2023-02-12T06:34:25.002Z,92.28
2023-02-12T06:36:51.406Z,92.93
2023-02-12T06:39:18.212Z,92.29
2023-02-12T06:41:44.722Z,91.84
2023-02-12T06:44:12.405Z,92.63
2023-02-12T06:46:38.924Z,95.13
2023-02-12T06:49:05.534Z,95.35
2023-02-12T06:51:32.323Z,97.23
2023-02-12T06:53:59.119Z,96.44
2023-02-12T06:56:26.823Z,97.67
2023-02-12T06:58:56.984Z,98.70
2023-02-12T07:01:26.327Z,100.00
2023-02-12T07:04:02.471Z,100.00
2023-02-12T07:06:30.619Z,100.00
2023-02-12T07:08:57.638Z,99.89
2023-02-12T07:11:26.781Z,99.86
2023-02-12T07:13:53.288Z,99.63
2023-02-12T07:16:20.069Z,100.00
2023-02-12T07:18:46.843Z,100.00
2023-02-12T07:21:15.154Z,100.00
2023-02-12T07:23:42.532Z,100.00
2023-02-12T07:26:12.129Z,100.00
2023-02-12T07:28:39.113Z,100.00
2023-02-12T07:31:18.464Z,100.00
2023-02-12T07:33:45.505Z,99.12
2023-02-12T07:36:15.553Z,99.05
2023-02-12T07:38:42.627Z,98.42
2023-02-12T07:41:12.404Z,97.93
2023-02-12T07:43:43.547Z,96.74
2023-02-12T07:46:22.398Z,95.79
2023-02-12T07:48:50.974Z,94.38
2023-02-12T07:51:21.834Z,93.07
2023-02-12T07:53:49.249Z,92.09
2023-02-12T07:56:19.093Z,91.15
2023-02-12T07:58:47.369Z,91.25
2023-02-12T08:01:15.244Z,91.27
2023-02-12T08:03:42.610Z,91.33
2023-02-12T08:06:14.438Z,90.28
2023-02-12T08:08:41.048Z,89.40
2023-02-12T08:11:10.100Z,89.58
2023-02-12T08:13:37.460Z,89.49
2023-02-12T08:16:07.382Z,89.49
2023-02-12T08:18:34.802Z,88.83
2023-02-12T08:21:09.805Z,88.31
2023-02-12T08:23:36.550Z,87.85
2023-02-12T08:26:17.929Z,87.19
2023-02-12T08:28:50.225Z,85.35
2023-02-12T08:31:20.262Z,84.92
2023-02-12T08:33:48.232Z,84.12
2023-02-12T08:36:18.796Z,83.65
2023-02-12T08:38:46.836Z,83.73
2023-02-12T08:41:16.019Z,84.27
2023-02-12T08:43:43.508Z,82.94
2023-02-12T08:46:19.044Z,81.55
2023-02-12T08:48:45.581Z,82.80
2023-02-12T08:51:15.309Z,80.05
2023-02-12T08:53:44.511Z,79.24
2023-02-12T08:56:20.899Z,80.77
2023-02-12T08:58:49.733Z,80.21
2023-02-12T09:01:24.541Z,79.80
2023-02-12T09:03:52.523Z,77.61
2023-02-12T09:06:21.616Z,77.94
2023-02-12T09:08:51.056Z,77.91
2023-02-12T09:11:32.870Z,79.11
2023-02-12T09:14:04.835Z,78.15
2023-02-12T09:16:37.643Z,76.60
2023-02-12T09:19:04.613Z,76.14
2023-02-12T09:21:31.088Z,75.57
2023-02-12T09:24:09.105Z,75.20
2023-02-12T09:26:35.794Z,73.10
2023-02-12T09:29:03.883Z,72.38
2023-02-12T09:31:32.166Z,73.66
2023-02-12T09:34:03.448Z,72.34
2023-02-12T09:36:31.138Z,71.17
2023-02-12T09:38:59.448Z,71.52
2023-02-12T09:41:54.172Z,71.47
2023-02-12T09:44:54.444Z,72.23
2023-02-12T09:47:33.951Z,71.58
2023-02-12T09:50:13.931Z,72.72
2023-02-12T09:52:41.637Z,71.60
2023-02-12T09:55:14.753Z,72.29
2023-02-12T09:57:42.447Z,71.46
2023-02-12T10:00:22.967Z,72.06
2023-02-12T10:02:53.522Z,71.49
2023-02-12T10:05:32.322Z,70.26
2023-02-12T10:08:26.530Z,69.92
2023-02-12T10:11:24.596Z,70.87
2023-02-12T10:14:30.926Z,71.79
2023-02-12T10:17:35.924Z,71.42
2023-02-12T10:20:20.323Z,71.93
2023-02-12T10:23:11.721Z,73.64
2023-02-12T10:25:54.824Z,73.92
2023-02-12T10:28:26.638Z,74.83
2023-02-12T10:30:58.706Z,74.48
2023-02-12T10:33:31.961Z,74.84
2023-02-12T10:36:20.401Z,75.05
2023-02-12T10:38:51.922Z,74.79
2023-02-12T10:41:22.978Z,75.38
2023-02-12T10:43:49.564Z,75.87
2023-02-12T10:46:17.437Z,76.08
2023-02-12T10:48:53.873Z,76.17
2023-02-12T10:51:41.188Z,75.45
2023-02-12T10:54:35.300Z,74.31
2023-02-12T10:57:27.951Z,75.44
2023-02-12T10:59:59.475Z,75.99
2023-02-12T11:02:34.008Z,76.07
2023-02-12T11:05:22.896Z,74.41
2023-02-12T11:07:51.394Z,73.76
2023-02-12T11:10:40.339Z,73.43
2023-02-12T11:13:25.911Z,74.41
2023-02-12T11:15:55.994Z,75.14
2023-02-12T11:18:28.910Z,72.74
2023-02-12T11:21:09.386Z,74.46
2023-02-12T11:23:43.277Z,74.07
2023-02-12T11:26:19.679Z,73.90
2023-02-12T11:29:03.242Z,73.75
2023-02-12T11:31:35.335Z,73.01
2023-02-12T11:34:05.722Z,74.32
2023-02-12T11:36:36.798Z,73.61
2023-02-12T11:39:04.782Z,72.84
2023-02-12T11:41:38.786Z,72.21
2023-02-12T11:44:35.365Z,71.33
2023-02-12T11:47:09.313Z,71.72
2023-02-12T11:50:19.460Z,72.11
2023-02-12T11:52:50.234Z,73.27
2023-02-12T11:55:32.355Z,73.48
2023-02-12T11:58:15.729Z,75.11
2023-02-12T12:01:01.018Z,76.00
2023-02-12T12:03:36.576Z,75.53
2023-02-12T12:06:29.532Z,76.28
2023-02-12T12:09:22.117Z,75.19
2023-02-12T12:12:06.579Z,76.50
2023-02-12T12:14:59.419Z,75.76
2023-02-12T12:17:59.442Z,75.39
2023-02-12T12:20:32.422Z,75.87
2023-02-12T12:23:50.317Z,74.86
2023-02-12T12:26:25.246Z,74.44
2023-02-12T12:29:06.655Z,73.56
2023-02-12T12:31:35.881Z,73.44
2023-02-12T12:34:21.805Z,73.24
2023-02-12T12:37:15.157Z,73.65
2023-02-12T12:40:20.830Z,73.58
2023-02-12T12:42:47.435Z,73.49
2023-02-12T12:45:31.172Z,72.02
2023-02-12T12:48:25.615Z,71.24
2023-02-12T12:51:10.756Z,71.71
2023-02-12T12:54:04.539Z,71.40
2023-02-12T12:56:58.429Z,70.86
2023-02-12T12:59:43.712Z,72.02
2023-02-12T13:02:41.497Z,72.05
2023-02-12T13:05:32.962Z,70.45
2023-02-12T13:08:48.554Z,71.32
2023-02-12T13:11:28.620Z,72.21
2023-02-12T13:14:17.714Z,70.55
2023-02-12T13:16:53.536Z,71.40
2023-02-12T13:19:36.154Z,71.50
2023-02-12T13:22:18.301Z,71.89
2023-02-12T13:24:50.432Z,72.08
2023-02-12T13:27:20.643Z,72.14
2023-02-12T13:30:00.455Z,73.34
2023-02-12T13:32:36.005Z,73.18
2023-02-12T13:35:06.810Z,72.47
2023-02-12T13:37:46.577Z,72.50
2023-02-12T13:40:19.381Z,72.89
2023-02-12T13:43:07.667Z,73.50
2023-02-12T13:45:34.074Z,73.41
2023-02-12T13:48:29.782Z,73.49
2023-02-12T13:51:28.554Z,74.39
2023-02-12T13:54:09.815Z,73.70
2023-02-12T13:56:42.469Z,73.58
2023-02-12T13:59:39.754Z,73.57
2023-02-12T14:02:12.485Z,74.62
2023-02-12T14:04:45.691Z,75.06
2023-02-12T14:07:14.719Z,75.36
2023-02-12T14:09:44.403Z,76.21
2023-02-12T14:12:16.892Z,76.17
2023-02-12T14:14:50.349Z,78.05
2023-02-12T14:17:28.947Z,78.09
2023-02-12T14:20:05.267Z,78.81
2023-02-12T14:22:31.700Z,77.47
2023-02-12T14:25:00.746Z,76.75
2023-02-12T14:27:52.512Z,76.23
2023-02-12T14:30:35.231Z,76.94
2023-02-12T14:33:07.962Z,76.05
2023-02-12T14:35:40.557Z,76.64
2023-02-12T14:38:32.151Z,77.10
2023-02-12T14:41:41.499Z,77.33
2023-02-12T14:44:17.359Z,77.48
2023-02-12T14:46:54.205Z,76.86
2023-02-12T14:49:27.591Z,76.88
2023-02-12T14:52:18.003Z,76.05
2023-02-12T14:54:57.932Z,77.34
2023-02-12T14:57:30.406Z,76.56
2023-02-12T15:00:01.907Z,75.98
2023-02-12T15:02:32.285Z,76.63
2023-02-12T15:05:07.544Z,76.50
2023-02-12T15:07:55.964Z,76.62
2023-02-12T15:10:44.444Z,77.27
2023-02-12T15:13:22.924Z,78.21
2023-02-12T15:15:55.539Z,77.46
2023-02-12T15:18:31.776Z,78.51
2023-02-12T15:21:13.433Z,78.10
2023-02-12T15:23:42.533Z,78.02
2023-02-12T15:26:24.147Z,78.15
2023-02-12T15:28:53.279Z,78.74
2023-02-12T15:31:26.232Z,77.26
2023-02-12T15:33:56.378Z,79.51
2023-02-12T15:36:26.826Z,80.44
2023-02-12T15:38:59.070Z,78.22
2023-02-12T15:41:36.921Z,77.28
2023-02-12T15:44:17.881Z,77.21
2023-02-12T15:46:55.823Z,77.49
2023-02-12T15:49:27.863Z,77.66
2023-02-12T15:51:55.570Z,78.46
2023-02-12T15:54:22.352Z,79.01
2023-02-12T15:56:49.185Z,78.75
2023-02-12T15:59:24.991Z,79.47
2023-02-12T16:02:03.462Z,80.01
2023-02-12T16:04:37.328Z,81.31
2023-02-12T16:07:04.051Z,80.83
2023-02-12T16:09:36.285Z,78.60
2023-02-12T16:12:05.672Z,78.68
2023-02-12T16:14:40.804Z,79.11
2023-02-12T16:17:25.609Z,77.83
2023-02-12T16:19:56.139Z,75.94
2023-02-12T16:22:27.707Z,76.69
2023-02-12T16:24:58.721Z,78.09
2023-02-12T16:27:29.077Z,78.97
2023-02-12T16:30:01.847Z,79.59
2023-02-12T16:32:39.063Z,80.37
2023-02-12T16:35:11.482Z,82.08
2023-02-12T16:37:37.894Z,81.92
2023-02-12T16:40:21.436Z,82.12
2023-02-12T16:42:47.838Z,82.15
2023-02-12T16:45:32.332Z,83.33
2023-02-12T16:48:08.537Z,82.94
2023-02-12T16:50:39.394Z,83.29
2023-02-12T16:53:08.531Z,83.66
2023-02-12T16:55:36.651Z,83.59
2023-02-12T16:58:03.233Z,82.69
2023-02-12T17:00:29.666Z,82.71
2023-02-12T17:02:56.735Z,83.45
2023-02-12T17:05:23.693Z,83.79
2023-02-12T17:07:50.404Z,84.39
2023-02-12T17:10:17.401Z,84.41
2023-02-12T17:12:48.559Z,84.39
2023-02-12T17:15:24.964Z,84.79
2023-02-12T17:17:51.364Z,84.38
2023-02-12T17:20:17.902Z,84.49
2023-02-12T17:22:54.100Z,83.95
2023-02-12T17:25:21.382Z,85.17
2023-02-12T17:27:47.747Z,84.78
2023-02-12T17:30:24.194Z,84.64
2023-02-12T17:32:51.439Z,85.29
2023-02-12T17:35:18.023Z,85.47
2023-02-12T17:37:45.218Z,85.94
2023-02-12T17:40:12.616Z,85.40
2023-02-12T17:42:39.598Z,84.94
2023-02-12T17:45:06.536Z,85.05
2023-02-12T17:47:39.583Z,85.88
2023-02-12T17:50:11.179Z,85.96
2023-02-12T17:52:37.793Z,85.89
2023-02-12T17:55:05.145Z,85.73
2023-02-12T17:57:32.009Z,85.97
2023-02-12T17:59:58.990Z,85.85
2023-02-12T18:02:25.827Z,86.08
2023-02-12T18:04:52.287Z,86.12
2023-02-12T18:07:18.777Z,85.81
2023-02-12T18:09:45.241Z,85.62
2023-02-12T18:12:11.651Z,85.42
2023-02-12T18:14:38.360Z,84.68
2023-02-12T18:17:04.906Z,85.71
2023-02-12T18:19:31.432Z,85.71
2023-02-12T18:21:57.939Z,85.81
2023-02-12T18:24:24.416Z,85.27
2023-02-12T18:26:51.071Z,84.61
2023-02-12T18:29:17.642Z,84.01
2023-02-12T18:31:44.407Z,84.65
2023-02-12T18:34:10.947Z,85.36
2023-02-12T18:36:37.555Z,86.18
2023-02-12T18:39:04.292Z,85.97
2023-02-12T18:41:31.925Z,85.98
2023-02-12T18:43:59.430Z,85.16
2023-02-12T18:46:28.702Z,85.95
2023-02-12T18:48:56.229Z,84.70
2023-02-12T18:51:26.409Z,85.10
2023-02-12T18:54:01.362Z,84.94
2023-02-12T18:56:29.375Z,85.58
2023-02-12T18:58:57.632Z,85.41
2023-02-12T19:01:25.045Z,85.76
2023-02-12T19:03:56.736Z,85.88
2023-02-12T19:06:23.794Z,85.72
2023-02-12T19:08:54.961Z,85.79
2023-02-12T19:11:21.401Z,86.61
2023-02-12T19:13:48.992Z,84.79
2023-02-12T19:16:17.718Z,84.90
2023-02-12T19:18:44.693Z,86.05
2023-02-12T19:21:13.363Z,86.03
2023-02-12T19:23:40.407Z,86.49
2023-02-12T19:26:09.121Z,86.19
2023-02-12T19:28:38.191Z,87.60
2023-02-12T19:31:20.384Z,87.07
2023-02-12T19:33:48.481Z,86.50
2023-02-12T19:36:18.162Z,86.40
2023-02-12T19:38:45.760Z,87.59
2023-02-12T19:41:17.971Z,86.71
2023-02-12T19:43:44.601Z,86.41
2023-02-12T19:46:14.301Z,86.72
2023-02-12T19:48:41.392Z,86.76
2023-02-12T19:51:12.616Z,86.54
2023-02-12T19:53:39.141Z,87.35
2023-02-12T19:56:07.308Z,87.44
2023-02-12T19:58:34.415Z,87.27
2023-02-12T20:01:00.988Z,87.00
2023-02-12T20:03:28.761Z,86.38
2023-02-12T20:06:03.876Z,87.16
2023-02-12T20:08:30.445Z,88.04
2023-02-12T20:10:57.134Z,88.63
2023-02-12T20:13:23.898Z,88.49
2023-02-12T20:15:50.499Z,88.25
2023-02-12T20:18:17.042Z,88.58
2023-02-12T20:20:43.454Z,88.05
2023-02-12T20:23:09.941Z,88.08
2023-02-12T20:25:42.689Z,89.04
2023-02-12T20:28:09.198Z,89.48
2023-02-12T20:30:39.477Z,89.25
2023-02-12T20:33:06.122Z,88.73
2023-02-12T20:35:32.757Z,88.00
2023-02-12T20:37:59.341Z,88.56
2023-02-12T20:40:25.804Z,88.67
2023-02-12T20:42:52.176Z,88.34
2023-02-12T20:45:18.702Z,88.98
2023-02-12T20:47:45.112Z,89.38
2023-02-12T20:50:11.569Z,89.57
2023-02-12T20:52:38.191Z,89.05
2023-02-12T20:55:04.904Z,89.02
2023-02-12T20:57:33.508Z,89.44
2023-02-12T21:00:00.840Z,88.48
2023-02-12T21:02:28.017Z,88.27
2023-02-12T21:04:56.097Z,88.80
2023-02-12T21:07:23.013Z,89.54
2023-02-12T21:09:50.196Z,90.07
2023-02-12T21:12:16.719Z,90.27
2023-02-12T21:14:43.354Z,91.08
2023-02-12T21:17:09.780Z,90.99
2023-02-12T21:19:36.893Z,91.31
2023-02-12T21:22:03.602Z,90.38
2023-02-12T21:24:30.025Z,90.78
2023-02-12T21:26:56.639Z,90.57
2023-02-12T21:29:23.456Z,90.53
2023-02-12T21:31:50.838Z,90.30
2023-02-12T21:34:20.499Z,90.08
2023-02-12T21:36:47.841Z,90.82
2023-02-12T21:39:24.348Z,90.52
2023-02-12T21:41:53.054Z,90.42
2023-02-12T21:44:20.504Z,90.04
2023-02-12T21:46:47.225Z,89.28
2023-02-12T21:49:23.099Z,89.57
2023-02-12T21:51:49.620Z,89.72
2023-02-12T21:54:16.198Z,90.55
2023-02-12T21:56:45.674Z,90.10
2023-02-12T21:59:13.388Z,89.68
2023-02-12T22:01:51.599Z,89.59
2023-02-12T22:04:19.419Z,89.33
2023-02-12T22:06:48.344Z,89.93
2023-02-12T22:09:16.641Z,89.96
2023-02-12T22:11:43.694Z,89.83
2023-02-12T22:14:13.809Z,89.77
2023-02-12T22:16:40.400Z,89.61
2023-02-12T22:19:07.681Z,89.72
2023-02-12T22:21:37.197Z,89.31
2023-02-12T22:24:06.965Z,89.48
2023-02-12T22:26:33.992Z,88.84
2023-02-12T22:29:08.864Z,89.49
2023-02-12T22:31:38.734Z,89.18
2023-02-12T22:34:10.142Z,89.08
2023-02-12T22:36:38.455Z,89.42
2023-02-12T22:39:05.688Z,89.50
2023-02-12T22:41:33.099Z,89.80
2023-02-12T22:44:00.474Z,89.75
2023-02-12T22:46:27.690Z,89.46
2023-02-12T22:48:54.156Z,89.33
2023-02-12T22:51:22.469Z,89.86
2023-02-12T22:53:49.257Z,89.61
2023-02-12T22:56:15.998Z,88.64
2023-02-12T22:58:43.120Z,88.92
2023-02-12T23:01:16.610Z,89.05
2023-02-12T23:03:43.392Z,90.69
2023-02-12T23:06:12.599Z,91.37
2023-02-12T23:08:39.980Z,90.98
2023-02-12T23:11:08.342Z,90.69
2023-02-12T23:13:36.156Z,90.33
2023-02-12T23:16:03.380Z,90.62
2023-02-12T23:18:30.212Z,90.91
2023-02-12T23:20:56.985Z,90.03
2023-02-12T23:23:23.796Z,89.27
2023-02-12T23:25:50.714Z,89.78
2023-02-12T23:28:17.594Z,89.43
2023-02-12T23:30:44.165Z,90.04
2023-02-12T23:33:11.212Z,89.92
2023-02-12T23:35:37.626Z,89.41
2023-02-12T23:38:04.441Z,89.01
2023-02-12T23:40:32.255Z,89.34
2023-02-12T23:42:58.741Z,89.56
2023-02-12T23:45:25.494Z,89.90
2023-02-12T23:47:51.984Z,90.58
2023-02-12T23:50:18.578Z,90.08
2023-02-12T23:52:45.221Z,89.23
2023-02-12T23:55:11.811Z,89.03
2023-02-12T23:57:38.283Z,89.32
